sensor_id;sensor_type;location;lat;lon;timestamp;pressure;altitude;pressure_sealevel;temperature;humidity
61761;BME280;47664;51.660;-0.100;2023-05-11T00:01:02;100729.70;;;13.59;55.57
61761;BME280;47664;51.660;-0.100;2023-05-11T00:03:30;100728.94;;;13.52;55.75
61761;BME280;47664;51.660;-0.100;2023-05-11T00:05:58;100728.62;;;13.93;55.34
61761;BME280;47664;51.660;-0.100;2023-05-11T00:08:26;100726.93;;;13.09;55.32
61761;BME280;47664;51.660;-0.100;2023-05-11T00:10:53;100727.03;;;13.73;54.98
61761;BME280;47664;51.660;-0.100;2023-05-11T00:13:20;100726.08;;;13.14;55.95
61761;BME280;47664;51.660;-0.100;2023-05-11T00:15:48;100727.35;;;13.28;56.40
61761;BME280;47664;51.660;-0.100;2023-05-11T00:18:16;100725.64;;;13.65;56.52
61761;BME280;47664;51.660;-0.100;2023-05-11T00:20:44;100723.12;;;13.53;56.27
61761;BME280;47664;51.660;-0.100;2023-05-11T00:23:12;100722.69;;;13.44;56.18
61761;BME280;47664;51.660;-0.100;2023-05-11T00:25:39;100726.33;;;13.70;56.21
61761;BME280;47664;51.660;-0.100;2023-05-11T00:28:06;100727.66;;;13.79;55.91
61761;BME280;47664;51.660;-0.100;2023-05-11T00:30:33;100728.25;;;13.50;55.90
61761;BME280;47664;51.660;-0.100;2023-05-11T00:33:00;100727.41;;;13.55;55.85
61761;BME280;47664;51.660;-0.100;2023-05-11T00:35:27;100725.23;;;13.04;55.58
61761;BME280;47664;51.660;-0.100;2023-05-11T00:37:55;100721.79;;;13.98;55.27
61761;BME280;47664;51.660;-0.100;2023-05-11T00:40:22;100722.60;;;13.24;55.42
61761;BME280;47664;51.660;-0.100;2023-05-11T00:42:50;100720.28;;;13.83;55.55
61761;BME280;47664;51.660;-0.100;2023-05-11T00:45:17;100722.94;;;13.62;55.33
61761;BME280;47664;51.660;-0.100;2023-05-11T00:47:44;100725.28;;;13.17;55.67
61761;BME280;47664;51.660;-0.100;2023-05-11T00:50:11;100728.68;;;13.56;55.55
61761;BME280;47664;51.660;-0.100;2023-05-11T00:52:38;100727.57;;;13.49;55.71
61761;BME280;47664;51.660;-0.100;2023-05-11T00:55:08;100728.28;;;13.41;55.65
61761;BME280;47664;51.660;-0.100;2023-05-11T00:57:36;100730.47;;;13.56;55.69
61761;BME280;47664;51.660;-0.100;2023-05-11T01:00:04;100731.59;;;13.93;55.57
61761;BME280;47664;51.660;-0.100;2023-05-11T01:02:32;100733.37;;;13.40;55.12
61761;BME280;47664;51.660;-0.100;2023-05-11T01:04:59;100734.92;;;13.86;54.84
61761;BME280;47664;51.660;-0.100;2023-05-11T01:07:34;100735.41;;;13.06;54.81
61761;BME280;47664;51.660;-0.100;2023-05-11T01:10:12;100734.71;;;13.64;54.57
61761;BME280;47664;51.660;-0.100;2023-05-11T01:12:47;100738.96;;;13.43;55.04
61761;BME280;47664;51.660;-0.100;2023-05-11T01:15:25;100737.77;;;13.49;54.70
61761;BME280;47664;51.660;-0.100;2023-05-11T01:17:59;100736.11;;;13.56;54.97
61761;BME280;47664;51.660;-0.100;2023-05-11T01:20:29;100738.13;;;12.96;54.60
61761;BME280;47664;51.660;-0.100;2023-05-11T01:23:11;100738.26;;;13.33;55.40
61761;BME280;47664;51.660;-0.100;2023-05-11T01:25:59;100736.85;;;13.50;55.51
61761;BME280;47664;51.660;-0.100;2023-05-11T01:28:51;100738.52;;;13.03;55.40
61761;BME280;47664;51.660;-0.100;2023-05-11T01:31:28;100741.42;;;12.78;55.29
61761;BME280;47664;51.660;-0.100;2023-05-11T01:33:58;100743.83;;;13.69;55.01
61761;BME280;47664;51.660;-0.100;2023-05-11T01:36:28;100746.49;;;12.80;54.49
61761;BME280;47664;51.660;-0.100;2023-05-11T01:39:03;100746.76;;;13.60;54.72
61761;BME280;47664;51.660;-0.100;2023-05-11T01:41:36;100750.72;;;13.38;54.04
61761;BME280;47664;51.660;-0.100;2023-05-11T01:44:08;100752.18;;;13.79;54.06
61761;BME280;47664;51.660;-0.100;2023-05-11T01:46:36;100752.24;;;13.24;54.32
61761;BME280;47664;51.660;-0.100;2023-05-11T01:49:06;100748.40;;;13.69;54.22
61761;BME280;47664;51.660;-0.100;2023-05-11T01:51:36;100750.22;;;13.36;54.35
61761;BME280;47664;51.660;-0.100;2023-05-11T01:54:06;100753.36;;;13.53;54.51
61761;BME280;47664;51.660;-0.100;2023-05-11T01:56:35;100758.66;;;13.25;54.67
61761;BME280;47664;51.660;-0.100;2023-05-11T01:59:04;100758.93;;;13.67;54.14
61761;BME280;47664;51.660;-0.100;2023-05-11T02:01:33;100757.81;;;13.09;54.42
61761;BME280;47664;51.660;-0.100;2023-05-11T02:04:02;100759.12;;;13.32;54.75
61761;BME280;47664;51.660;-0.100;2023-05-11T02:06:31;100759.30;;;12.69;54.98
61761;BME280;47664;51.660;-0.100;2023-05-11T02:09:01;100761.63;;;13.58;54.34
61761;BME280;47664;51.660;-0.100;2023-05-11T02:11:28;100763.03;;;12.89;54.38
61761;BME280;47664;51.660;-0.100;2023-05-11T02:13:57;100764.21;;;13.42;54.78
61761;BME280;47664;51.660;-0.100;2023-05-11T02:16:26;100768.64;;;13.22;54.37
61761;BME280;47664;51.660;-0.100;2023-05-11T02:18:56;100768.16;;;13.57;54.41
61761;BME280;47664;51.660;-0.100;2023-05-11T02:21:26;100765.90;;;12.66;55.10
61761;BME280;47664;51.660;-0.100;2023-05-11T02:23:54;100764.26;;;13.17;55.54
61761;BME280;47664;51.660;-0.100;2023-05-11T02:26:23;100766.14;;;12.80;55.43
61761;BME280;47664;51.660;-0.100;2023-05-11T02:28:50;100769.99;;;12.94;55.47
61761;BME280;47664;51.660;-0.100;2023-05-11T02:31:20;100772.60;;;13.54;55.39
61761;BME280;47664;51.660;-0.100;2023-05-11T02:33:52;100770.97;;;13.23;54.88
61761;BME280;47664;51.660;-0.100;2023-05-11T02:36:22;100771.45;;;12.86;54.70
61761;BME280;47664;51.660;-0.100;2023-05-11T02:38:57;100770.21;;;13.34;54.63
61761;BME280;47664;51.660;-0.100;2023-05-11T02:41:27;100771.13;;;12.89;54.39
61761;BME280;47664;51.660;-0.100;2023-05-11T02:44:00;100775.23;;;13.16;55.12
61761;BME280;47664;51.660;-0.100;2023-05-11T02:46:33;100773.54;;;12.70;54.91
61761;BME280;47664;51.660;-0.100;2023-05-11T02:49:04;100778.21;;;13.18;54.76
61761;BME280;47664;51.660;-0.100;2023-05-11T02:51:36;100781.57;;;12.91;55.47
61761;BME280;47664;51.660;-0.100;2023-05-11T02:54:06;100777.55;;;13.27;55.26
61761;BME280;47664;51.660;-0.100;2023-05-11T02:56:34;100777.01;;;12.90;54.92
61761;BME280;47664;51.660;-0.100;2023-05-11T02:59:02;100777.35;;;13.04;55.06
61761;BME280;47664;51.660;-0.100;2023-05-11T03:01:31;100780.58;;;12.47;55.29
61761;BME280;47664;51.660;-0.100;2023-05-11T03:03:58;100780.65;;;13.09;55.23
61761;BME280;47664;51.660;-0.100;2023-05-11T03:06:26;100782.40;;;12.13;55.79
61761;BME280;47664;51.660;-0.100;2023-05-11T03:08:53;100785.95;;;12.90;55.44
61761;BME280;47664;51.660;-0.100;2023-05-11T03:11:21;100784.22;;;12.44;56.00
61761;BME280;47664;51.660;-0.100;2023-05-11T03:13:49;100782.87;;;12.84;55.73
61761;BME280;47664;51.660;-0.100;2023-05-11T03:16:18;100782.32;;;13.07;55.41
61761;BME280;47664;51.660;-0.100;2023-05-11T03:18:46;100779.82;;;12.65;55.29
61761;BME280;47664;51.660;-0.100;2023-05-11T03:21:17;100778.42;;;13.10;55.59
61761;BME280;47664;51.660;-0.100;2023-05-11T03:23:44;100781.02;;;12.34;55.84
61761;BME280;47664;51.660;-0.100;2023-05-11T03:26:12;100782.31;;;12.64;55.87
61761;BME280;47664;51.660;-0.100;2023-05-11T03:28:43;100782.59;;;12.68;55.33
61761;BME280;47664;51.660;-0.100;2023-05-11T03:31:12;100781.85;;;11.67;55.07
61761;BME280;47664;51.660;-0.100;2023-05-11T03:33:39;100775.84;;;12.09;53.54
61761;BME280;47664;51.660;-0.100;2023-05-11T03:36:09;100776.74;;;12.46;51.50
61761;BME280;47664;51.660;-0.100;2023-05-11T03:38:39;100773.88;;;12.26;51.03
61761;BME280;47664;51.660;-0.100;2023-05-11T03:41:08;100775.42;;;13.02;50.33
61761;BME280;47664;51.660;-0.100;2023-05-11T03:43:40;100777.92;;;12.65;50.01
61761;BME280;47664;51.660;-0.100;2023-05-11T03:46:12;100776.84;;;13.22;49.89
61761;BME280;47664;51.660;-0.100;2023-05-11T03:48:41;100774.47;;;12.79;49.56
61761;BME280;47664;51.660;-0.100;2023-05-11T03:51:10;100776.87;;;13.17;49.84
61761;BME280;47664;51.660;-0.100;2023-05-11T03:53:38;100775.84;;;12.61;50.01
61761;BME280;47664;51.660;-0.100;2023-05-11T03:56:07;100777.32;;;13.57;49.85
61761;BME280;47664;51.660;-0.100;2023-05-11T03:58:37;100777.71;;;13.32;51.75
61761;BME280;47664;51.660;-0.100;2023-05-11T04:01:06;100776.66;;;13.38;53.18
61761;BME280;47664;51.660;-0.100;2023-05-11T04:03:34;100778.73;;;13.20;53.63
61761;BME280;47664;51.660;-0.100;2023-05-11T04:06:01;100780.85;;;13.18;54.17
61761;BME280;47664;51.660;-0.100;2023-05-11T04:08:29;100781.37;;;12.38;54.56
61761;BME280;47664;51.660;-0.100;2023-05-11T04:10:56;100781.47;;;12.67;55.01
61761;BME280;47664;51.660;-0.100;2023-05-11T04:13:23;100783.19;;;12.36;54.89
61761;BME280;47664;51.660;-0.100;2023-05-11T04:15:51;100785.22;;;12.91;55.01
61761;BME280;47664;51.660;-0.100;2023-05-11T04:18:18;100781.01;;;12.47;55.18
61761;BME280;47664;51.660;-0.100;2023-05-11T04:20:45;100783.32;;;12.70;55.08
61761;BME280;47664;51.660;-0.100;2023-05-11T04:23:13;100783.86;;;12.58;55.32
61761;BME280;47664;51.660;-0.100;2023-05-11T04:25:41;100782.54;;;12.58;55.10
61761;BME280;47664;51.660;-0.100;2023-05-11T04:28:08;100786.78;;;13.02;55.25
61761;BME280;47664;51.660;-0.100;2023-05-11T04:30:35;100790.08;;;12.60;55.01
61761;BME280;47664;51.660;-0.100;2023-05-11T04:33:02;100792.78;;;12.92;55.34
61761;BME280;47664;51.660;-0.100;2023-05-11T04:35:30;100794.62;;;12.46;55.43
61761;BME280;47664;51.660;-0.100;2023-05-11T04:37:56;100795.66;;;12.90;55.17
61761;BME280;47664;51.660;-0.100;2023-05-11T04:40:24;100798.14;;;12.11;55.20
61761;BME280;47664;51.660;-0.100;2023-05-11T04:42:51;100798.30;;;12.49;55.70
61761;BME280;47664;51.660;-0.100;2023-05-11T04:45:19;100800.61;;;12.38;56.21
61761;BME280;47664;51.660;-0.100;2023-05-11T04:47:46;100802.79;;;12.25;56.09
61761;BME280;47664;51.660;-0.100;2023-05-11T04:50:13;100802.25;;;12.85;55.82
61761;BME280;47664;51.660;-0.100;2023-05-11T04:52:40;100802.64;;;12.50;55.36
61761;BME280;47664;51.660;-0.100;2023-05-11T04:55:08;100802.11;;;13.15;54.94
61761;BME280;47664;51.660;-0.100;2023-05-11T04:57:35;100799.99;;;12.66;55.49
61761;BME280;47664;51.660;-0.100;2023-05-11T05:00:03;100798.63;;;13.06;55.72
61761;BME280;47664;51.660;-0.100;2023-05-11T05:02:31;100804.94;;;12.20;55.82
61761;BME280;47664;51.660;-0.100;2023-05-11T05:04:57;100804.01;;;12.84;55.64
61761;BME280;47664;51.660;-0.100;2023-05-11T05:07:25;100804.33;;;12.21;55.35
61761;BME280;47664;51.660;-0.100;2023-05-11T05:09:52;100804.05;;;12.74;55.29
61761;BME280;47664;51.660;-0.100;2023-05-11T05:12:20;100806.08;;;12.83;55.24
61761;BME280;47664;51.660;-0.100;2023-05-11T05:14:47;100808.45;;;13.52;54.90
61761;BME280;47664;51.660;-0.100;2023-05-11T05:17:14;100808.78;;;13.03;55.03
61761;BME280;47664;51.660;-0.100;2023-05-11T05:19:41;100810.10;;;13.06;54.92
61761;BME280;47664;51.660;-0.100;2023-05-11T05:22:08;100813.13;;;13.10;54.63
61761;BME280;47664;51.660;-0.100;2023-05-11T05:24:35;100816.12;;;13.01;54.49
61761;BME280;47664;51.660;-0.100;2023-05-11T05:27:02;100816.71;;;13.30;54.93
61761;BME280;47664;51.660;-0.100;2023-05-11T05:29:29;100817.47;;;12.36;54.98
61761;BME280;47664;51.660;-0.100;2023-05-11T05:31:57;100822.11;;;12.69;55.02
61761;BME280;47664;51.660;-0.100;2023-05-11T05:34:24;100819.58;;;12.42;55.13
61761;BME280;47664;51.660;-0.100;2023-05-11T05:36:52;100825.93;;;12.92;55.06
61761;BME280;47664;51.660;-0.100;2023-05-11T05:39:19;100824.96;;;12.75;55.10
61761;BME280;47664;51.660;-0.100;2023-05-11T05:41:46;100826.61;;;13.19;55.05
61761;BME280;47664;51.660;-0.100;2023-05-11T05:44:13;100828.96;;;13.18;54.94
61761;BME280;47664;51.660;-0.100;2023-05-11T05:46:40;100832.20;;;12.91;56.35
61761;BME280;47664;51.660;-0.100;2023-05-11T05:49:07;100831.67;;;12.79;56.51
61761;BME280;47664;51.660;-0.100;2023-05-11T05:51:35;100830.87;;;11.45;57.34
61761;BME280;47664;51.660;-0.100;2023-05-11T05:54:04;100830.97;;;11.40;56.40
61761;BME280;47664;51.660;-0.100;2023-05-11T05:56:34;100831.17;;;11.56;55.23
61761;BME280;47664;51.660;-0.100;2023-05-11T05:59:02;100832.67;;;12.41;53.89
61761;BME280;47664;51.660;-0.100;2023-05-11T06:01:32;100834.46;;;12.28;52.52
61761;BME280;47664;51.660;-0.100;2023-05-11T06:04:00;100837.52;;;12.76;52.73
61761;BME280;47664;51.660;-0.100;2023-05-11T06:06:28;100836.36;;;12.42;52.43
61761;BME280;47664;51.660;-0.100;2023-05-11T06:08:57;100837.51;;;13.13;51.80
61761;BME280;47664;51.660;-0.100;2023-05-11T06:11:26;100839.88;;;12.79;51.98
61761;BME280;47664;51.660;-0.100;2023-05-11T06:13:54;100839.18;;;12.92;51.84
61761;BME280;47664;51.660;-0.100;2023-05-11T06:16:23;100840.91;;;12.24;52.48
61761;BME280;47664;51.660;-0.100;2023-05-11T06:18:50;100845.13;;;13.43;52.24
61761;BME280;47664;51.660;-0.100;2023-05-11T06:21:18;100846.61;;;12.92;54.31
61761;BME280;47664;51.660;-0.100;2023-05-11T06:23:45;100852.03;;;12.75;55.43
61761;BME280;47664;51.660;-0.100;2023-05-11T06:26:12;100853.38;;;12.89;55.68
61761;BME280;47664;51.660;-0.100;2023-05-11T06:28:39;100854.89;;;12.77;55.79
61761;BME280;47664;51.660;-0.100;2023-05-11T06:31:06;100853.42;;;12.88;56.37
61761;BME280;47664;51.660;-0.100;2023-05-11T06:33:33;100850.51;;;13.03;55.94
61761;BME280;47664;51.660;-0.100;2023-05-11T06:36:04;100849.95;;;13.49;55.23
61761;BME280;47664;51.660;-0.100;2023-05-11T06:38:31;100853.77;;;13.12;54.51
61761;BME280;47664;51.660;-0.100;2023-05-11T06:40:58;100851.71;;;13.82;54.83
61761;BME280;47664;51.660;-0.100;2023-05-11T06:43:25;100852.57;;;12.98;55.35
61761;BME280;47664;51.660;-0.100;2023-05-11T06:45:53;100851.64;;;13.59;56.03
61761;BME280;47664;51.660;-0.100;2023-05-11T06:48:20;100853.69;;;13.51;54.94
61761;BME280;47664;51.660;-0.100;2023-05-11T06:50:47;100856.38;;;13.17;55.84
61761;BME280;47664;51.660;-0.100;2023-05-11T06:53:14;100854.52;;;13.72;54.38
61761;BME280;47664;51.660;-0.100;2023-05-11T06:55:41;100855.67;;;13.50;55.10
61761;BME280;47664;51.660;-0.100;2023-05-11T06:58:08;100857.61;;;13.34;56.02
61761;BME280;47664;51.660;-0.100;2023-05-11T07:00:35;100857.48;;;13.46;55.29
61761;BME280;47664;51.660;-0.100;2023-05-11T07:03:03;100858.98;;;13.83;54.76
61761;BME280;47664;51.660;-0.100;2023-05-11T07:05:30;100859.89;;;13.49;54.26
61761;BME280;47664;51.660;-0.100;2023-05-11T07:07:58;100858.26;;;14.09;54.37
61761;BME280;47664;51.660;-0.100;2023-05-11T07:10:25;100862.65;;;13.14;55.49
61761;BME280;47664;51.660;-0.100;2023-05-11T07:12:53;100859.79;;;13.74;55.01
61761;BME280;47664;51.660;-0.100;2023-05-11T07:15:20;100859.29;;;13.67;53.78
61761;BME280;47664;51.660;-0.100;2023-05-11T07:17:47;100860.24;;;14.13;53.50
61761;BME280;47664;51.660;-0.100;2023-05-11T07:20:14;100861.10;;;14.66;52.31
61761;BME280;47664;51.660;-0.100;2023-05-11T07:22:41;100863.64;;;14.67;53.07
61761;BME280;47664;51.660;-0.100;2023-05-11T07:25:08;100865.19;;;15.04;52.10
61761;BME280;47664;51.660;-0.100;2023-05-11T07:27:36;100866.81;;;14.34;52.99
61761;BME280;47664;51.660;-0.100;2023-05-11T07:30:03;100865.92;;;14.45;52.72
61761;BME280;47664;51.660;-0.100;2023-05-11T07:32:31;100867.52;;;14.23;52.70
61761;BME280;47664;51.660;-0.100;2023-05-11T07:34:58;100867.27;;;15.00;52.13
61761;BME280;47664;51.660;-0.100;2023-05-11T07:37:25;100869.04;;;14.03;52.73
61761;BME280;47664;51.660;-0.100;2023-05-11T07:39:52;100868.64;;;14.99;52.47
61761;BME280;47664;51.660;-0.100;2023-05-11T07:42:19;100869.46;;;14.64;53.22
61761;BME280;47664;51.660;-0.100;2023-05-11T07:44:47;100866.32;;;14.73;52.16
61761;BME280;47664;51.660;-0.100;2023-05-11T07:47:14;100866.07;;;14.73;51.69
61761;BME280;47664;51.660;-0.100;2023-05-11T07:49:40;100867.38;;;15.22;52.21
61761;BME280;47664;51.660;-0.100;2023-05-11T07:52:07;100871.26;;;14.99;52.44
61761;BME280;47664;51.660;-0.100;2023-05-11T07:54:34;100872.01;;;14.30;50.83
61761;BME280;47664;51.660;-0.100;2023-05-11T07:57:01;100874.24;;;14.99;51.16
61761;BME280;47664;51.660;-0.100;2023-05-11T07:59:28;100875.45;;;14.27;51.88
61761;BME280;47664;51.660;-0.100;2023-05-11T08:01:55;100877.32;;;14.46;52.90
61761;BME280;47664;51.660;-0.100;2023-05-11T08:04:23;100880.87;;;14.17;52.55
61761;BME280;47664;51.660;-0.100;2023-05-11T08:06:50;100888.45;;;13.97;53.74
61761;BME280;47664;51.660;-0.100;2023-05-11T08:09:18;100885.02;;;14.88;51.82
61761;BME280;47664;51.660;-0.100;2023-05-11T08:11:45;100889.40;;;14.92;50.46
61761;BME280;47664;51.660;-0.100;2023-05-11T08:14:12;100890.97;;;15.64;48.88
61761;BME280;47664;51.660;-0.100;2023-05-11T08:16:39;100890.32;;;14.77;50.89
61761;BME280;47664;51.660;-0.100;2023-05-11T08:19:06;100892.63;;;15.51;49.82
61761;BME280;47664;51.660;-0.100;2023-05-11T08:21:33;100892.29;;;15.37;48.97
61761;BME280;47664;51.660;-0.100;2023-05-11T08:24:00;100889.70;;;15.74;47.73
61761;BME280;47664;51.660;-0.100;2023-05-11T08:26:27;100890.45;;;15.27;48.31
61761;BME280;47664;51.660;-0.100;2023-05-11T08:28:55;100888.74;;;15.91;48.36
61761;BME280;47664;51.660;-0.100;2023-05-11T08:31:22;100886.49;;;15.74;47.51
61761;BME280;47664;51.660;-0.100;2023-05-11T08:33:49;100889.50;;;16.47;46.85
61761;BME280;47664;51.660;-0.100;2023-05-11T08:36:17;100893.23;;;16.61;46.61
61761;BME280;47664;51.660;-0.100;2023-05-11T08:38:44;100892.32;;;16.00;46.85
61761;BME280;47664;51.660;-0.100;2023-05-11T08:41:11;100891.30;;;15.73;47.25
61761;BME280;47664;51.660;-0.100;2023-05-11T08:43:39;100895.67;;;15.88;46.11
61761;BME280;47664;51.660;-0.100;2023-05-11T08:46:07;100896.59;;;16.10;46.00
61761;BME280;47664;51.660;-0.100;2023-05-11T08:48:37;100894.35;;;16.25;45.09
61761;BME280;47664;51.660;-0.100;2023-05-11T08:51:06;100896.31;;;15.94;47.42
61761;BME280;47664;51.660;-0.100;2023-05-11T08:53:33;100896.54;;;15.94;48.11
61761;BME280;47664;51.660;-0.100;2023-05-11T08:56:00;100896.16;;;16.02;48.43
61761;BME280;47664;51.660;-0.100;2023-05-11T08:58:30;100894.13;;;15.45;47.25
61761;BME280;47664;51.660;-0.100;2023-05-11T09:00:58;100896.23;;;16.43;48.08
61761;BME280;47664;51.660;-0.100;2023-05-11T09:03:27;100896.31;;;15.66;47.10
61761;BME280;47664;51.660;-0.100;2023-05-11T09:05:55;100896.60;;;16.36;48.10
61761;BME280;47664;51.660;-0.100;2023-05-11T09:08:25;100898.63;;;16.21;45.92
61761;BME280;47664;51.660;-0.100;2023-05-11T09:10:55;100902.62;;;16.18;47.47
61761;BME280;47664;51.660;-0.100;2023-05-11T09:13:23;100902.99;;;15.89;47.64
61761;BME280;47664;51.660;-0.100;2023-05-11T09:15:50;100899.45;;;16.85;44.34
61761;BME280;47664;51.660;-0.100;2023-05-11T09:18:17;100901.02;;;16.57;45.16
61761;BME280;47664;51.660;-0.100;2023-05-11T09:20:45;100899.20;;;16.94;44.33
61761;BME280;47664;51.660;-0.100;2023-05-11T09:23:15;100902.47;;;16.92;43.97
61761;BME280;47664;51.660;-0.100;2023-05-11T09:25:42;100899.33;;;16.15;44.42
61761;BME280;47664;51.660;-0.100;2023-05-11T09:28:11;100898.13;;;16.28;44.50
61761;BME280;47664;51.660;-0.100;2023-05-11T09:30:38;100899.38;;;15.54;45.48
61761;BME280;47664;51.660;-0.100;2023-05-11T09:33:04;100896.26;;;16.91;44.45
61761;BME280;47664;51.660;-0.100;2023-05-11T09:35:33;100897.89;;;15.98;44.36
61761;BME280;47664;51.660;-0.100;2023-05-11T09:38:04;100897.45;;;16.68;45.71
61761;BME280;47664;51.660;-0.100;2023-05-11T09:40:34;100896.79;;;16.50;46.13
61761;BME280;47664;51.660;-0.100;2023-05-11T09:43:02;100896.60;;;17.43;43.96
61761;BME280;47664;51.660;-0.100;2023-05-11T09:45:38;100895.17;;;16.81;42.55
61761;BME280;47664;51.660;-0.100;2023-05-11T09:48:06;100892.69;;;17.86;42.20
61761;BME280;47664;51.660;-0.100;2023-05-11T09:50:39;100884.96;;;18.40;40.53
61761;BME280;47664;51.660;-0.100;2023-05-11T09:53:06;100883.65;;;19.02;40.24
61761;BME280;47664;51.660;-0.100;2023-05-11T09:55:34;100885.25;;;19.17;40.26
61761;BME280;47664;51.660;-0.100;2023-05-11T09:58:02;100887.17;;;18.95;39.26
61761;BME280;47664;51.660;-0.100;2023-05-11T10:00:30;100886.76;;;18.78;39.38
61761;BME280;47664;51.660;-0.100;2023-05-11T10:02:59;100891.16;;;19.60;38.72
61761;BME280;47664;51.660;-0.100;2023-05-11T10:05:27;100889.34;;;19.57;37.26
61761;BME280;47664;51.660;-0.100;2023-05-11T10:07:56;100888.79;;;19.39;37.32
61761;BME280;47664;51.660;-0.100;2023-05-11T10:10:25;100889.87;;;18.64;38.06
61761;BME280;47664;51.660;-0.100;2023-05-11T10:12:54;100887.67;;;18.35;39.63
61761;BME280;47664;51.660;-0.100;2023-05-11T10:15:22;100891.71;;;17.45;40.75
61761;BME280;47664;51.660;-0.100;2023-05-11T10:17:51;100890.54;;;17.35;42.43
61761;BME280;47664;51.660;-0.100;2023-05-11T10:20:20;100892.74;;;16.68;43.15
61761;BME280;47664;51.660;-0.100;2023-05-11T10:22:50;100892.33;;;16.94;43.50
61761;BME280;47664;51.660;-0.100;2023-05-11T10:25:20;100891.44;;;16.73;43.40
61761;BME280;47664;51.660;-0.100;2023-05-11T10:27:48;100891.11;;;16.53;44.17
61761;BME280;47664;51.660;-0.100;2023-05-11T10:30:17;100891.10;;;17.06;44.14
61761;BME280;47664;51.660;-0.100;2023-05-11T10:32:45;100892.00;;;16.75;43.81
61761;BME280;47664;51.660;-0.100;2023-05-11T10:35:12;100891.76;;;16.65;44.79
61761;BME280;47664;51.660;-0.100;2023-05-11T10:37:40;100890.70;;;15.82;46.91
61761;BME280;47664;51.660;-0.100;2023-05-11T10:40:09;100892.32;;;16.52;48.92
61761;BME280;47664;51.660;-0.100;2023-05-11T10:42:58;100893.54;;;16.27;48.35
61761;BME280;47664;51.660;-0.100;2023-05-11T10:45:39;100897.94;;;15.85;47.40
61761;BME280;47664;51.660;-0.100;2023-05-11T10:48:24;100897.32;;;17.01;47.38
61761;BME280;47664;51.660;-0.100;2023-05-11T10:51:04;100896.00;;;16.81;46.17
61761;BME280;47664;51.660;-0.100;2023-05-11T10:53:52;100899.28;;;16.38;49.36
61761;BME280;47664;51.660;-0.100;2023-05-11T10:56:42;100898.26;;;16.32;46.17
61761;BME280;47664;51.660;-0.100;2023-05-11T10:59:30;100898.01;;;16.83;47.03
61761;BME280;47664;51.660;-0.100;2023-05-11T11:02:05;100897.70;;;17.08;46.82
61761;BME280;47664;51.660;-0.100;2023-05-11T11:04:41;100897.46;;;16.51;45.31
61761;BME280;47664;51.660;-0.100;2023-05-11T11:07:09;100894.64;;;16.95;47.22
61761;BME280;47664;51.660;-0.100;2023-05-11T11:09:54;100892.40;;;16.34;47.28
61761;BME280;47664;51.660;-0.100;2023-05-11T11:12:22;100891.17;;;16.34;46.78
61761;BME280;47664;51.660;-0.100;2023-05-11T11:14:56;100890.36;;;16.87;45.48
61761;BME280;47664;51.660;-0.100;2023-05-11T11:17:25;100890.61;;;16.41;45.61
61761;BME280;47664;51.660;-0.100;2023-05-11T11:19:52;100893.01;;;16.77;44.62
61761;BME280;47664;51.660;-0.100;2023-05-11T11:22:44;100892.82;;;16.27;45.24
61761;BME280;47664;51.660;-0.100;2023-05-11T11:25:13;100894.78;;;16.89;45.66
61761;BME280;47664;51.660;-0.100;2023-05-11T11:27:57;100895.46;;;16.29;45.25
61761;BME280;47664;51.660;-0.100;2023-05-11T11:30:26;100894.44;;;16.24;45.82
61761;BME280;47664;51.660;-0.100;2023-05-11T11:32:55;100891.09;;;16.84;44.59
61761;BME280;47664;51.660;-0.100;2023-05-11T11:35:57;100891.47;;;16.53;44.30
61761;BME280;47664;51.660;-0.100;2023-05-11T11:38:24;100890.22;;;16.40;45.73
61761;BME280;47664;51.660;-0.100;2023-05-11T11:40:51;100888.42;;;16.88;46.36
61761;BME280;47664;51.660;-0.100;2023-05-11T11:43:20;100891.31;;;16.78;46.40
61761;BME280;47664;51.660;-0.100;2023-05-11T11:45:50;100891.86;;;16.43;47.03
61761;BME280;47664;51.660;-0.100;2023-05-11T11:48:28;100888.65;;;16.39;48.70
61761;BME280;47664;51.660;-0.100;2023-05-11T11:51:02;100887.83;;;16.36;49.31
61761;BME280;47664;51.660;-0.100;2023-05-11T11:54:02;100881.11;;;16.16;47.49
61761;BME280;47664;51.660;-0.100;2023-05-11T11:56:41;100885.71;;;16.05;48.97
61761;BME280;47664;51.660;-0.100;2023-05-11T11:59:09;100887.18;;;16.82;48.35
61761;BME280;47664;51.660;-0.100;2023-05-11T12:01:38;100887.07;;;16.52;46.63
61761;BME280;47664;51.660;-0.100;2023-05-11T12:04:30;100886.60;;;16.85;48.16
61761;BME280;47664;51.660;-0.100;2023-05-11T12:06:59;100888.95;;;17.12;47.66
61761;BME280;47664;51.660;-0.100;2023-05-11T12:09:29;100890.50;;;16.54;46.82
61761;BME280;47664;51.660;-0.100;2023-05-11T12:11:56;100891.04;;;17.19;44.95
61761;BME280;47664;51.660;-0.100;2023-05-11T12:14:25;100887.47;;;16.53;44.30
61761;BME280;47664;51.660;-0.100;2023-05-11T12:17:02;100893.95;;;17.18;44.97
61761;BME280;47664;51.660;-0.100;2023-05-11T12:19:29;100893.46;;;16.57;46.04
61761;BME280;47664;51.660;-0.100;2023-05-11T12:21:56;100897.72;;;17.13;45.66
61761;BME280;47664;51.660;-0.100;2023-05-11T12:24:24;100897.61;;;16.68;45.04
61761;BME280;47664;51.660;-0.100;2023-05-11T12:26:55;100899.84;;;16.96;46.11
61761;BME280;47664;51.660;-0.100;2023-05-11T12:29:23;100901.28;;;16.88;45.74
61761;BME280;47664;51.660;-0.100;2023-05-11T12:31:50;100902.62;;;16.94;45.59
61761;BME280;47664;51.660;-0.100;2023-05-11T12:34:19;100904.29;;;16.89;45.15
61761;BME280;47664;51.660;-0.100;2023-05-11T12:36:48;100908.74;;;17.13;45.16
61761;BME280;47664;51.660;-0.100;2023-05-11T12:39:17;100909.09;;;16.94;45.82
61761;BME280;47664;51.660;-0.100;2023-05-11T12:41:46;100907.42;;;16.65;46.18
61761;BME280;47664;51.660;-0.100;2023-05-11T12:44:14;100904.41;;;16.90;47.19
61761;BME280;47664;51.660;-0.100;2023-05-11T12:46:42;100901.34;;;16.33;47.29
61761;BME280;47664;51.660;-0.100;2023-05-11T12:49:09;100902.65;;;16.37;48.31
61761;BME280;47664;51.660;-0.100;2023-05-11T12:51:46;100899.40;;;15.65;51.77